»·PEaware :: F-AZJU KTOA-KVNY

F-AZJU :: KTOA-KVNY

FLIGHT INFORMATION

Flight Status: Arrived
Operator: Privately registered:
France
More flights under this callsign
Pilot: Kim B. (19519)
Aircraft: Unknown
(JU52)
More flights by this aircraft type
Origin: KTOA Zamperini
United States
Destination: KVNY Van Nuys
United States
More flights between these airports :: More routes between these airports
Route: LAX170 LIMBO V64 SMO125 SMO SMO317 CANOG
File this flight plan on PilotEdge
Remarks: SKY-1
Altitude:
(Current/Filed)
4,000ft
Speed:
(Current/Filed)
140kts
Departed: 02-Oct-18 09:16 PM
Arrived: 02-Oct-18 10:03 PM
Distance/Time
Traveled:
25nm/0:46
Distance/Time
To Go:
Arrived

Flight Plot

Page will automatically refresh every two minutes.

Flight plan parsing failed; only flown route is shown


Map Options




Map Legend


Flown Route
Filed Route
Departure Airport
Arrival Airport
Navaid (VOR, NDB)
Fix

Horizontal Profiles

Position Reports

Time Latitude Longitude Heading Altitude Ground
Speed
02-Oct-18 21:08 33.796503 -118.332401 359 104ft 0kts
02-Oct-18 21:09 33.796503 -118.332401 359 104ft 0kts
02-Oct-18 21:10 33.796503 -118.332401 359 104ft 0kts
02-Oct-18 21:11 33.796503 -118.332401 359 104ft 0kts
02-Oct-18 21:12 33.796503 -118.332401 359 104ft 0kts
02-Oct-18 21:13 33.796503 -118.332401 359 104ft 0kts
02-Oct-18 21:14 33.796503 -118.332401 359 104ft 0kts
02-Oct-18 21:15 33.797986 -118.332995 201 104ft 9kts
02-Oct-18 21:16 33.799228 -118.333162 39 104ft 0kts
02-Oct-18 21:17 33.799228 -118.333162 39 104ft 0kts
02-Oct-18 21:18 33.804891 -118.340995 307 105ft 78kts
02-Oct-18 21:19 33.818438 -118.361013 296 493ft 71kts
02-Oct-18 21:20 33.829850 -118.383195 299 1495ft 75kts
02-Oct-18 21:21 33.840573 -118.404016 298 2443ft 71kts
02-Oct-18 21:22 33.849976 -118.424758 262 3278ft 73kts
02-Oct-18 21:23 33.834487 -118.438871 207 3991ft 86kts
02-Oct-18 21:24 33.802631 -118.443584 184 3965ft 130kts
02-Oct-18 21:25 33.770409 -118.434566 99 3965ft 133kts
02-Oct-18 21:26 33.769808 -118.391026 95 3959ft 120kts
02-Oct-18 21:27 33.768507 -118.352353 88 3962ft 114kts
02-Oct-18 21:28 33.768794 -118.314548 86 3962ft 113kts
02-Oct-18 21:29 33.771009 -118.276940 85 3962ft 113kts
02-Oct-18 21:30 33.777362 -118.241453 27 3962ft 112kts
02-Oct-18 21:31 33.803742 -118.257755 320 3965ft 118kts
02-Oct-18 21:32 33.829725 -118.284200 320 3962ft 124kts
02-Oct-18 21:33 33.857968 -118.308478 317 3962ft 125kts
02-Oct-18 21:34 33.884857 -118.334912 320 3962ft 125kts
02-Oct-18 21:35 33.912732 -118.360592 322 3962ft 127kts
02-Oct-18 21:36 33.939698 -118.386750 318 3962ft 128kts
02-Oct-18 21:37 33.966740 -118.414432 319 3962ft 128kts
02-Oct-18 21:38 33.993921 -118.442231 319 3962ft 128kts
02-Oct-18 21:39 34.021930 -118.468628 333 3961ft 128kts
02-Oct-18 21:40 34.054500 -118.485013 327 3963ft 128kts
02-Oct-18 21:41 34.085112 -118.506923 329 3962ft 128kts
02-Oct-18 21:42 34.110813 -118.524692 330 3962ft 128kts
02-Oct-18 21:43 34.147743 -118.547830 331 3962ft 128kts
02-Oct-18 21:44 34.175721 -118.559612 343 3962ft 128kts
02-Oct-18 21:45 34.215579 -118.573704 343 3962ft 128kts
02-Oct-18 21:46 34.244073 -118.584231 342 3962ft 128kts
02-Oct-18 21:47 34.278860 -118.592682 352 3962ft 128kts
02-Oct-18 21:48 34.314136 -118.598715 352 3962ft 128kts
02-Oct-18 21:49 34.349210 -118.604076 353 4007ft 123kts
02-Oct-18 21:50 34.375951 -118.607474 5 4633ft 107kts
02-Oct-18 21:51 34.404678 -118.611305 352 4967ft 117kts
02-Oct-18 21:52 34.438762 -118.616491 352 4961ft 126kts
02-Oct-18 21:53 34.471277 -118.612140 65 4954ft 127kts
02-Oct-18 21:54 34.471701 -118.569616 92 4961ft 127kts
02-Oct-18 21:55 34.458662 -118.531602 141 4961ft 131kts
02-Oct-18 21:56 34.427235 -118.512366 173 4956ft 121kts
02-Oct-18 21:57 34.398685 -118.508605 141 4563ft 94kts
02-Oct-18 21:58 34.372378 -118.504044 176 3802ft 98kts
02-Oct-18 21:59 34.349231 -118.502154 175 3866ft 88kts
02-Oct-18 22:00 34.321163 -118.499913 176 3201ft 119kts
02-Oct-18 22:01 34.286471 -118.497294 177 1864ft 108kts
02-Oct-18 22:02 34.258512 -118.495120 176 1488ft 95kts
02-Oct-18 22:03 34.234819 -118.491799 172 1091ft 97kts
02-Oct-18 22:04 34.208883 -118.490279 175 809ft 58kts
02-Oct-18 22:05 34.202422 -118.491092 264 808ft 7kts
02-Oct-18 22:06 34.202957 -118.491712 351 808ft 0kts
02-Oct-18 22:07 34.202957 -118.491712 351 808ft 0kts
02-Oct-18 22:08 34.202957 -118.491712 351 808ft 0kts

Navigation Log

Ident Type
Flight plan parsing failed, navigation log unavailable